Alburtis, Pennsylvania
Current Conditions -  °F | °C
As of 10:35 AM on Thursday 23 Oct 2014 (Local Time) from KXLL Reporting Station
Light Rain Light Rain  
Wind Chill: 50°   Ceiling: 6000
Heat Index: 50°   Visibility: 10mi
Dew Point: 43°   Wind: 17mph
Humidity: 76%   Direction: 330°NNW
Pressure: 29.83"   Gusts: 25mph
Location:  40.51°N, 75.6°W
Report Text: KXLL 231435Z AUTO 33015G22KT 10SM -RA SCT044 OVC060 10/06 A2983 RMK AO2
Loading
Personal Weather Stations






























Interactive Weather Map
Tropical Storm Tracking
New forecast layout! Learn more

10-Day Weather Forecast

Advertisements
Track Severe Weather on mobile